sensor_id;sensor_type;location;lat;lon;timestamp;pressure;altitude;pressure_sealevel;temperature;humidity
55610;BME280;41486;52.502;13.486;2023-07-20T00:00:11;100490.25;;;17.72;100.00
55610;BME280;41486;52.502;13.486;2023-07-20T00:02:40;100485.78;;;17.73;100.00
55610;BME280;41486;52.502;13.486;2023-07-20T00:05:08;100489.91;;;17.75;100.00
55610;BME280;41486;52.502;13.486;2023-07-20T00:07:37;100487.56;;;17.72;100.00
55610;BME280;41486;52.502;13.486;2023-07-20T00:10:05;100492.56;;;17.75;100.00
55610;BME280;41486;52.502;13.486;2023-07-20T00:12:34;100491.91;;;17.81;100.00
55610;BME280;41486;52.502;13.486;2023-07-20T00:15:02;100496.22;;;17.74;100.00
55610;BME280;41486;52.502;13.486;2023-07-20T00:17:32;100500.38;;;17.77;100.00
55610;BME280;41486;52.502;13.486;2023-07-20T00:20:00;100497.72;;;17.77;100.00
55610;BME280;41486;52.502;13.486;2023-07-20T00:22:28;100497.41;;;17.72;100.00
55610;BME280;41486;52.502;13.486;2023-07-20T00:24:56;100495.06;;;17.60;100.00
55610;BME280;41486;52.502;13.486;2023-07-20T00:27:24;100500.38;;;17.69;100.00
55610;BME280;41486;52.502;13.486;2023-07-20T00:29:52;100498.59;;;17.69;100.00
55610;BME280;41486;52.502;13.486;2023-07-20T00:32:20;100497.91;;;17.67;100.00
55610;BME280;41486;52.502;13.486;2023-07-20T00:34:51;100498.41;;;17.54;100.00
55610;BME280;41486;52.502;13.486;2023-07-20T00:37:19;100497.59;;;17.54;100.00
55610;BME280;41486;52.502;13.486;2023-07-20T00:39:47;100495.06;;;17.52;100.00
55610;BME280;41486;52.502;13.486;2023-07-20T00:42:15;100492.09;;;17.55;100.00
55610;BME280;41486;52.502;13.486;2023-07-20T00:44:44;100497.97;;;18.23;100.00
55610;BME280;41486;52.502;13.486;2023-07-20T00:47:12;100499.06;;;17.81;100.00
55610;BME280;41486;52.502;13.486;2023-07-20T00:49:40;100509.84;;;17.88;100.00
55610;BME280;41486;52.502;13.486;2023-07-20T00:52:11;100507.84;;;18.06;100.00
55610;BME280;41486;52.502;13.486;2023-07-20T00:54:42;100504.25;;;18.39;100.00
55610;BME280;41486;52.502;13.486;2023-07-20T00:57:14;100508.81;;;18.22;100.00
55610;BME280;41486;52.502;13.486;2023-07-20T00:59:42;100500.72;;;17.90;100.00
55610;BME280;41486;52.502;13.486;2023-07-20T01:02:10;100493.41;;;17.59;100.00
55610;BME280;41486;52.502;13.486;2023-07-20T01:04:40;100495.06;;;17.60;100.00
55610;BME280;41486;52.502;13.486;2023-07-20T01:07:13;100486.94;;;17.45;100.00
55610;BME280;41486;52.502;13.486;2023-07-20T01:09:47;100490.75;;;17.51;100.00
55610;BME280;41486;52.502;13.486;2023-07-20T01:12:52;100501.06;;;17.46;100.00
55610;BME280;41486;52.502;13.486;2023-07-20T01:15:20;100496.75;;;17.45;100.00
55610;BME280;41486;52.502;13.486;2023-07-20T01:17:48;100508.38;;;17.35;100.00
55610;BME280;41486;52.502;13.486;2023-07-20T01:20:18;100499.06;;;17.31;100.00
55610;BME280;41486;52.502;13.486;2023-07-20T01:23:14;100501.88;;;17.13;100.00
55610;BME280;41486;52.502;13.486;2023-07-20T01:26:02;100499.03;;;17.07;100.00
55610;BME280;41486;52.502;13.486;2023-07-20T01:29:01;100499.78;;;16.82;100.00
55610;BME280;41486;52.502;13.486;2023-07-20T01:31:34;100504.81;;;16.94;100.00
55610;BME280;41486;52.502;13.486;2023-07-20T01:34:05;100512.44;;;16.88;100.00
55610;BME280;41486;52.502;13.486;2023-07-20T01:36:37;100511.75;;;16.86;100.00
55610;BME280;41486;52.502;13.486;2023-07-20T01:39:06;100500.19;;;16.96;100.00
55610;BME280;41486;52.502;13.486;2023-07-20T01:41:34;100506.59;;;16.85;100.00
55610;BME280;41486;52.502;13.486;2023-07-20T01:44:03;100510.59;;;16.89;100.00
55610;BME280;41486;52.502;13.486;2023-07-20T01:46:33;100500.19;;;16.96;100.00
55610;BME280;41486;52.502;13.486;2023-07-20T01:49:02;100501.94;;;16.87;100.00
55610;BME280;41486;52.502;13.486;2023-07-20T01:51:31;100502.78;;;16.87;100.00
55610;BME280;41486;52.502;13.486;2023-07-20T01:53:59;100504.09;;;16.83;100.00
55610;BME280;41486;52.502;13.486;2023-07-20T01:56:27;100502.59;;;16.81;100.00
55610;BME280;41486;52.502;13.486;2023-07-20T01:58:55;100507.41;;;16.77;100.00
55610;BME280;41486;52.502;13.486;2023-07-20T02:01:23;100504.56;;;16.79;100.00
55610;BME280;41486;52.502;13.486;2023-07-20T02:03:53;100496.53;;;16.97;100.00
55610;BME280;41486;52.502;13.486;2023-07-20T02:06:21;100495.97;;;16.77;100.00
55610;BME280;41486;52.502;13.486;2023-07-20T02:08:50;100509.78;;;16.88;100.00
55610;BME280;41486;52.502;13.486;2023-07-20T02:11:18;100496.59;;;16.79;100.00
55610;BME280;41486;52.502;13.486;2023-07-20T02:13:46;100497.63;;;16.78;100.00
55610;BME280;41486;52.502;13.486;2023-07-20T02:16:14;100501.25;;;16.68;100.00
55610;BME280;41486;52.502;13.486;2023-07-20T02:18:43;100500.59;;;16.75;100.00
55610;BME280;41486;52.502;13.486;2023-07-20T02:21:12;100496.41;;;16.64;100.00
55610;BME280;41486;52.502;13.486;2023-07-20T02:23:41;100499.91;;;16.72;100.00
55610;BME280;41486;52.502;13.486;2023-07-20T02:26:09;100503.75;;;16.78;100.00
55610;BME280;41486;52.502;13.486;2023-07-20T02:28:37;100503.03;;;16.68;100.00
55610;BME280;41486;52.502;13.486;2023-07-20T02:31:05;100496.22;;;16.57;100.00
55610;BME280;41486;52.502;13.486;2023-07-20T02:33:33;100494.06;;;16.61;100.00
55610;BME280;41486;52.502;13.486;2023-07-20T02:36:01;100492.06;;;16.54;100.00
55610;BME280;41486;52.502;13.486;2023-07-20T02:38:31;100492.88;;;16.55;100.00
55610;BME280;41486;52.502;13.486;2023-07-20T02:40:59;100497.88;;;16.58;100.00
55610;BME280;41486;52.502;13.486;2023-07-20T02:43:27;100492.19;;;16.45;100.00
55610;BME280;41486;52.502;13.486;2023-07-20T02:46:01;100491.09;;;16.21;100.00
55610;BME280;41486;52.502;13.486;2023-07-20T02:48:29;100493.59;;;16.31;100.00
55610;BME280;41486;52.502;13.486;2023-07-20T02:50:57;100506.06;;;16.30;100.00
55610;BME280;41486;52.502;13.486;2023-07-20T02:53:25;100502.34;;;16.23;100.00
55610;BME280;41486;52.502;13.486;2023-07-20T02:55:55;100509.50;;;16.22;100.00
55610;BME280;41486;52.502;13.486;2023-07-20T02:58:23;100512.50;;;16.28;100.00
55610;BME280;41486;52.502;13.486;2023-07-20T03:00:51;100513.44;;;16.10;100.00
55610;BME280;41486;52.502;13.486;2023-07-20T03:03:19;100529.13;;;16.03;100.00
55610;BME280;41486;52.502;13.486;2023-07-20T03:05:48;100538.06;;;16.02;100.00
55610;BME280;41486;52.502;13.486;2023-07-20T03:08:21;100538.53;;;15.98;100.00
55610;BME280;41486;52.502;13.486;2023-07-20T03:10:49;100530.75;;;15.96;100.00
55610;BME280;41486;52.502;13.486;2023-07-20T03:13:18;100535.72;;;15.99;100.00
55610;BME280;41486;52.502;13.486;2023-07-20T03:15:46;100530.63;;;16.06;100.00
55610;BME280;41486;52.502;13.486;2023-07-20T03:18:14;100533.28;;;16.06;100.00
55610;BME280;41486;52.502;13.486;2023-07-20T03:20:43;100533.34;;;16.14;100.00
55610;BME280;41486;52.502;13.486;2023-07-20T03:23:11;100532.09;;;16.00;100.00
55610;BME280;41486;52.502;13.486;2023-07-20T03:25:39;100536.75;;;16.06;100.00
55610;BME280;41486;52.502;13.486;2023-07-20T03:28:08;100529.50;;;16.08;100.00
55610;BME280;41486;52.502;13.486;2023-07-20T03:30:37;100529.50;;;16.08;100.00
55610;BME280;41486;52.502;13.486;2023-07-20T03:33:05;100529.19;;;16.12;100.00
55610;BME280;41486;52.502;13.486;2023-07-20T03:35:33;100529.41;;;16.18;100.00
55610;BME280;41486;52.502;13.486;2023-07-20T03:38:03;100539.16;;;16.18;100.00
55610;BME280;41486;52.502;13.486;2023-07-20T03:40:31;100533.03;;;16.17;100.00
55610;BME280;41486;52.502;13.486;2023-07-20T03:43:00;100533.09;;;16.26;100.00
55610;BME280;41486;52.502;13.486;2023-07-20T03:45:28;100535.41;;;16.29;100.00
55610;BME280;41486;52.502;13.486;2023-07-20T03:47:57;100534.91;;;16.25;100.00
55610;BME280;41486;52.502;13.486;2023-07-20T03:50:25;100532.06;;;16.27;100.00
55610;BME280;41486;52.502;13.486;2023-07-20T03:52:53;100535.75;;;16.26;100.00
55610;BME280;41486;52.502;13.486;2023-07-20T03:55:21;100536.69;;;16.16;100.00
55610;BME280;41486;52.502;13.486;2023-07-20T03:57:49;100536.63;;;16.08;100.00
55610;BME280;41486;52.502;13.486;2023-07-20T04:00:18;100541.78;;;16.09;100.00
55610;BME280;41486;52.502;13.486;2023-07-20T04:02:46;100538.94;;;16.11;100.00
55610;BME280;41486;52.502;13.486;2023-07-20T04:05:16;100540.63;;;16.12;100.00
55610;BME280;41486;52.502;13.486;2023-07-20T04:07:44;100541.78;;;16.09;100.00
55610;BME280;41486;52.502;13.486;2023-07-20T04:10:12;100546.72;;;16.04;100.00
55610;BME280;41486;52.502;13.486;2023-07-20T04:12:40;100544.13;;;16.13;100.00
55610;BME280;41486;52.502;13.486;2023-07-20T04:15:09;100558.22;;;16.13;100.00
55610;BME280;41486;52.502;13.486;2023-07-20T04:17:37;100555.50;;;16.05;100.00
55610;BME280;41486;52.502;13.486;2023-07-20T04:20:06;100555.78;;;16.20;100.00
55610;BME280;41486;52.502;13.486;2023-07-20T04:22:35;100548.59;;;16.12;100.00
55610;BME280;41486;52.502;13.486;2023-07-20T04:25:06;100551.47;;;16.19;100.00
55610;BME280;41486;52.502;13.486;2023-07-20T04:27:35;100542.84;;;16.25;100.00
55610;BME280;41486;52.502;13.486;2023-07-20T04:30:03;100547.44;;;16.15;100.00
55610;BME280;41486;52.502;13.486;2023-07-20T04:32:33;100547.31;;;16.16;100.00
55610;BME280;41486;52.502;13.486;2023-07-20T04:35:05;100561.91;;;16.20;100.00
55610;BME280;41486;52.502;13.486;2023-07-20T04:37:38;100563.94;;;16.27;100.00
55610;BME280;41486;52.502;13.486;2023-07-20T04:40:15;100563.28;;;16.24;100.00
55610;BME280;41486;52.502;13.486;2023-07-20T04:42:44;100570.88;;;16.19;100.00
55610;BME280;41486;52.502;13.486;2023-07-20T04:45:12;100569.22;;;16.18;100.00
55610;BME280;41486;52.502;13.486;2023-07-20T04:47:40;100570.88;;;16.19;100.00
55610;BME280;41486;52.502;13.486;2023-07-20T04:50:09;100572.06;;;16.25;100.00
55610;BME280;41486;52.502;13.486;2023-07-20T04:52:39;100566.56;;;16.45;100.00
55610;BME280;41486;52.502;13.486;2023-07-20T04:55:13;100564.53;;;16.47;100.00
55610;BME280;41486;52.502;13.486;2023-07-20T04:57:41;100561.75;;;16.48;100.00
55610;BME280;41486;52.502;13.486;2023-07-20T05:00:10;100564.06;;;16.51;100.00
55610;BME280;41486;52.502;13.486;2023-07-20T05:02:40;100568.69;;;16.41;100.00
55610;BME280;41486;52.502;13.486;2023-07-20T05:05:08;100571.88;;;16.45;100.00
55610;BME280;41486;52.502;13.486;2023-07-20T05:07:36;100572.09;;;16.60;100.00
55610;BME280;41486;52.502;13.486;2023-07-20T05:10:07;100570.59;;;16.57;100.00
55610;BME280;41486;52.502;13.486;2023-07-20T05:12:35;100569.25;;;16.53;100.00
55610;BME280;41486;52.502;13.486;2023-07-20T05:15:04;100572.91;;;16.52;100.00
55610;BME280;41486;52.502;13.486;2023-07-20T05:17:32;100566.94;;;16.58;100.00
55610;BME280;41486;52.502;13.486;2023-07-20T05:20:01;100577.53;;;16.50;100.00
55610;BME280;41486;52.502;13.486;2023-07-20T05:22:31;100573.84;;;16.43;100.00
55610;BME280;41486;52.502;13.486;2023-07-20T05:25:00;100585.31;;;16.51;100.00
55610;BME280;41486;52.502;13.486;2023-07-20T05:27:30;100575.50;;;16.44;100.00
55610;BME280;41486;52.502;13.486;2023-07-20T05:29:58;100580.25;;;16.32;100.00
55610;BME280;41486;52.502;13.486;2023-07-20T05:32:30;100573.94;;;16.33;100.00
55610;BME280;41486;52.502;13.486;2023-07-20T05:34:59;100576.09;;;16.29;100.00
55610;BME280;41486;52.502;13.486;2023-07-20T05:37:27;100570.78;;;16.29;100.00
55610;BME280;41486;52.502;13.486;2023-07-20T05:39:55;100577.31;;;16.43;100.00
55610;BME280;41486;52.502;13.486;2023-07-20T05:42:23;100580.47;;;16.47;100.00
55610;BME280;41486;52.502;13.486;2023-07-20T05:44:52;100580.34;;;16.48;100.00
55610;BME280;41486;52.502;13.486;2023-07-20T05:47:22;100579.91;;;16.61;100.00
55610;BME280;41486;52.502;13.486;2023-07-20T05:49:50;100590.50;;;16.53;100.00
55610;BME280;41486;52.502;13.486;2023-07-20T05:52:18;100586.72;;;16.64;100.00
55610;BME280;41486;52.502;13.486;2023-07-20T05:54:46;100582.25;;;16.64;100.00
55610;BME280;41486;52.502;13.486;2023-07-20T05:57:14;100574.34;;;16.81;100.00
55610;BME280;41486;52.502;13.486;2023-07-20T05:59:42;100584.28;;;16.79;100.00
55610;BME280;41486;52.502;13.486;2023-07-20T06:02:12;100578.84;;;16.80;100.00
55610;BME280;41486;52.502;13.486;2023-07-20T06:04:40;100585.66;;;16.83;100.00
55610;BME280;41486;52.502;13.486;2023-07-20T06:07:08;100585.19;;;16.87;100.00
55610;BME280;41486;52.502;13.486;2023-07-20T06:09:37;100587.56;;;16.99;100.00
55610;BME280;41486;52.502;13.486;2023-07-20T06:12:06;100591.72;;;16.93;100.00
55610;BME280;41486;52.502;13.486;2023-07-20T06:14:34;100601.13;;;16.87;100.00
55610;BME280;41486;52.502;13.486;2023-07-20T06:17:02;100593.53;;;16.93;100.00
55610;BME280;41486;52.502;13.486;2023-07-20T06:19:32;100603.63;;;16.89;100.00
55610;BME280;41486;52.502;13.486;2023-07-20T06:22:00;100605.28;;;16.90;100.00
55610;BME280;41486;52.502;13.486;2023-07-20T06:24:28;100599.78;;;16.92;100.00
55610;BME280;41486;52.502;13.486;2023-07-20T06:26:56;100603.31;;;16.92;100.00
55610;BME280;41486;52.502;13.486;2023-07-20T06:29:24;100615.06;;;16.81;100.00
55610;BME280;41486;52.502;13.486;2023-07-20T06:31:52;100607.03;;;16.73;100.00
55610;BME280;41486;52.502;13.486;2023-07-20T06:34:20;100607.88;;;16.74;100.00
55610;BME280;41486;52.502;13.486;2023-07-20T06:36:51;100619.81;;;16.69;100.00
55610;BME280;41486;52.502;13.486;2023-07-20T06:39:19;100612.88;;;16.77;100.00
55610;BME280;41486;52.502;13.486;2023-07-20T06:41:51;100614.41;;;16.87;100.00
55610;BME280;41486;52.502;13.486;2023-07-20T06:44:21;100613.94;;;16.92;100.00
55610;BME280;41486;52.502;13.486;2023-07-20T06:46:49;100616.97;;;16.97;100.00
55610;BME280;41486;52.502;13.486;2023-07-20T06:49:27;100623.47;;;17.03;100.00
55610;BME280;41486;52.502;13.486;2023-07-20T06:51:56;100624.00;;;17.07;100.00
55610;BME280;41486;52.502;13.486;2023-07-20T06:54:25;100632.13;;;17.05;100.00
55610;BME280;41486;52.502;13.486;2023-07-20T06:56:53;100613.84;;;17.02;100.00
55610;BME280;41486;52.502;13.486;2023-07-20T06:59:24;100622.41;;;17.30;100.00
55610;BME280;41486;52.502;13.486;2023-07-20T07:01:52;100632.50;;;17.18;100.00
55610;BME280;41486;52.502;13.486;2023-07-20T07:04:20;100632.00;;;17.15;100.00
55610;BME280;41486;52.502;13.486;2023-07-20T07:06:48;100633.50;;;17.17;100.00
55610;BME280;41486;52.502;13.486;2023-07-20T07:09:17;100628.72;;;17.29;100.00
55610;BME280;41486;52.502;13.486;2023-07-20T07:11:45;100622.34;;;17.14;100.00
55610;BME280;41486;52.502;13.486;2023-07-20T07:14:13;100630.47;;;17.04;100.00
55610;BME280;41486;52.502;13.486;2023-07-20T07:16:42;100629.28;;;16.98;100.00
55610;BME280;41486;52.502;13.486;2023-07-20T07:19:10;100620.72;;;17.21;100.00
55610;BME280;41486;52.502;13.486;2023-07-20T07:21:38;100632.38;;;17.37;100.00
55610;BME280;41486;52.502;13.486;2023-07-20T07:24:06;100622.94;;;17.42;100.00
55610;BME280;41486;52.502;13.486;2023-07-20T07:26:38;100622.66;;;17.62;100.00
55610;BME280;41486;52.502;13.486;2023-07-20T07:29:06;100626.31;;;17.69;100.00
55610;BME280;41486;52.502;13.486;2023-07-20T07:31:34;100623.97;;;17.66;100.00
55610;BME280;41486;52.502;13.486;2023-07-20T07:34:03;100634.78;;;17.73;100.00
55610;BME280;41486;52.502;13.486;2023-07-20T07:36:32;100623.47;;;17.71;100.00
55610;BME280;41486;52.502;13.486;2023-07-20T07:39:00;100649.41;;;17.69;100.00
55610;BME280;41486;52.502;13.486;2023-07-20T07:41:50;100633.44;;;17.69;97.29
55610;BME280;41486;52.502;13.486;2023-07-20T07:44:18;100639.25;;;17.64;96.89
55610;BME280;41486;52.502;13.486;2023-07-20T07:46:48;100626.16;;;17.79;93.30
55610;BME280;41486;52.502;13.486;2023-07-20T07:49:16;100630.31;;;17.90;90.46
55610;BME280;41486;52.502;13.486;2023-07-20T07:51:45;100630.97;;;17.84;88.52
55610;BME280;41486;52.502;13.486;2023-07-20T07:54:13;100624.97;;;17.90;88.53
55610;BME280;41486;52.502;13.486;2023-07-20T07:56:41;100630.16;;;18.08;89.58
55610;BME280;41486;52.502;13.486;2023-07-20T07:59:12;100630.34;;;18.06;89.18
55610;BME280;41486;52.502;13.486;2023-07-20T08:01:40;100627.84;;;18.29;88.88
55610;BME280;41486;52.502;13.486;2023-07-20T08:04:08;100637.50;;;18.31;90.12
55610;BME280;41486;52.502;13.486;2023-07-20T08:06:36;100626.31;;;18.35;85.49
55610;BME280;41486;52.502;13.486;2023-07-20T08:09:04;100635.47;;;18.33;83.93
55610;BME280;41486;52.502;13.486;2023-07-20T08:11:32;100631.34;;;18.22;84.49
55610;BME280;41486;52.502;13.486;2023-07-20T08:14:01;100637.47;;;18.39;84.93
55610;BME280;41486;52.502;13.486;2023-07-20T08:16:31;100637.59;;;18.54;86.01
55610;BME280;41486;52.502;13.486;2023-07-20T08:18:59;100640.75;;;18.66;86.86
55610;BME280;41486;52.502;13.486;2023-07-20T08:21:29;100634.47;;;18.50;87.25
55610;BME280;41486;52.502;13.486;2023-07-20T08:23:57;100638.78;;;18.59;87.58
55610;BME280;41486;52.502;13.486;2023-07-20T08:26:25;100651.13;;;18.52;85.10
55610;BME280;41486;52.502;13.486;2023-07-20T08:28:53;100662.06;;;18.66;81.18
55610;BME280;41486;52.502;13.486;2023-07-20T08:31:21;100662.56;;;18.69;77.76
55610;BME280;41486;52.502;13.486;2023-07-20T08:33:51;100657.22;;;18.77;76.97
55610;BME280;41486;52.502;13.486;2023-07-20T08:36:19;100657.22;;;18.69;80.16
55610;BME280;41486;52.502;13.486;2023-07-20T08:38:48;100666.22;;;18.68;78.58
55610;BME280;41486;52.502;13.486;2023-07-20T08:41:16;100658.91;;;18.62;80.37
55610;BME280;41486;52.502;13.486;2023-07-20T08:43:46;100673.84;;;18.88;79.42
55610;BME280;41486;52.502;13.486;2023-07-20T08:46:14;100660.03;;;18.92;79.06
55610;BME280;41486;52.502;13.486;2023-07-20T08:48:43;100659.03;;;18.94;76.36
55610;BME280;41486;52.502;13.486;2023-07-20T08:51:14;100666.03;;;18.86;77.82
55610;BME280;41486;52.502;13.486;2023-07-20T08:53:45;100660.53;;;18.88;78.94
55610;BME280;41486;52.502;13.486;2023-07-20T08:56:13;100655.69;;;18.83;79.33
55610;BME280;41486;52.502;13.486;2023-07-20T08:58:43;100656.03;;;18.72;79.50
55610;BME280;41486;52.502;13.486;2023-07-20T09:01:13;100654.56;;;18.69;80.97
55610;BME280;41486;52.502;13.486;2023-07-20T09:03:43;100661.91;;;18.59;77.08
55610;BME280;41486;52.502;13.486;2023-07-20T09:06:15;100659.59;;;18.56;75.18
55610;BME280;41486;52.502;13.486;2023-07-20T09:08:44;100660.38;;;18.73;73.76
55610;BME280;41486;52.502;13.486;2023-07-20T09:11:13;100661.22;;;18.73;74.17
55610;BME280;41486;52.502;13.486;2023-07-20T09:13:41;100661.53;;;18.95;72.62
55610;BME280;41486;52.502;13.486;2023-07-20T09:16:13;100656.34;;;19.02;74.31
55610;BME280;41486;52.502;13.486;2023-07-20T09:18:41;100653.25;;;19.21;75.69
55610;BME280;41486;52.502;13.486;2023-07-20T09:21:10;100658.34;;;19.63;73.78
55610;BME280;41486;52.502;13.486;2023-07-20T09:23:40;100652.00;;;19.32;69.18
55610;BME280;41486;52.502;13.486;2023-07-20T09:26:11;100657.84;;;19.36;70.32
55610;BME280;41486;52.502;13.486;2023-07-20T09:28:47;100656.22;;;19.58;69.60
55610;BME280;41486;52.502;13.486;2023-07-20T09:31:17;100653.91;;;19.78;69.73
55610;BME280;41486;52.502;13.486;2023-07-20T09:33:49;100655.97;;;19.68;68.05
55610;BME280;41486;52.502;13.486;2023-07-20T09:36:20;100654.06;;;19.85;69.25
55610;BME280;41486;52.502;13.486;2023-07-20T09:39:09;100658.75;;;20.06;69.17
55610;BME280;41486;52.502;13.486;2023-07-20T09:41:41;100653.94;;;20.01;65.82
55610;BME280;41486;52.502;13.486;2023-07-20T09:44:14;100657.16;;;19.97;66.51
55610;BME280;41486;52.502;13.486;2023-07-20T09:46:46;100658.56;;;19.84;67.06
55610;BME280;41486;52.502;13.486;2023-07-20T09:49:17;100648.59;;;20.01;69.99
55610;BME280;41486;52.502;13.486;2023-07-20T09:51:49;100660.56;;;19.82;69.86
55610;BME280;41486;52.502;13.486;2023-07-20T09:54:21;100659.59;;;19.75;70.14
55610;BME280;41486;52.502;13.486;2023-07-20T09:56:50;100662.78;;;19.47;72.12
55610;BME280;41486;52.502;13.486;2023-07-20T09:59:19;100655.97;;;19.45;71.89
55610;BME280;41486;52.502;13.486;2023-07-20T10:01:47;100667.59;;;19.52;73.22
55610;BME280;41486;52.502;13.486;2023-07-20T10:04:18;100673.66;;;19.46;72.04
55610;BME280;41486;52.502;13.486;2023-07-20T10:06:49;100681.59;;;19.22;73.84
55610;BME280;41486;52.502;13.486;2023-07-20T10:09:22;100675.53;;;18.97;78.00
55610;BME280;41486;52.502;13.486;2023-07-20T10:11:52;100686.53;;;18.77;81.48
55610;BME280;41486;52.502;13.486;2023-07-20T10:14:41;100677.94;;;18.51;86.82
55610;BME280;41486;52.502;13.486;2023-07-20T10:17:13;100683.78;;;18.38;89.13
55610;BME280;41486;52.502;13.486;2023-07-20T10:19:44;100676.09;;;18.59;89.35
55610;BME280;41486;52.502;13.486;2023-07-20T10:22:24;100678.56;;;18.61;87.70
55610;BME280;41486;52.502;13.486;2023-07-20T10:24:54;100678.34;;;18.87;88.14
55610;BME280;41486;52.502;13.486;2023-07-20T10:27:27;100672.00;;;18.88;86.69
55610;BME280;41486;52.502;13.486;2023-07-20T10:29:56;100668.84;;;18.93;84.99
55610;BME280;41486;52.502;13.486;2023-07-20T10:32:26;100678.34;;;18.96;85.14
55610;BME280;41486;52.502;13.486;2023-07-20T10:34:56;100677.94;;;19.15;84.06
55610;BME280;41486;52.502;13.486;2023-07-20T10:37:50;100682.63;;;19.13;79.84
55610;BME280;41486;52.502;13.486;2023-07-20T10:40:38;100675.03;;;18.94;80.42
55610;BME280;41486;52.502;13.486;2023-07-20T10:43:09;100677.53;;;18.79;79.99
55610;BME280;41486;52.502;13.486;2023-07-20T10:45:42;100683.34;;;18.82;80.53
55610;BME280;41486;52.502;13.486;2023-07-20T10:48:14;100677.34;;;18.88;78.61
55610;BME280;41486;52.502;13.486;2023-07-20T10:50:43;100673.84;;;18.88;78.81
55610;BME280;41486;52.502;13.486;2023-07-20T10:53:15;100683.03;;;18.94;79.85
55610;BME280;41486;52.502;13.486;2023-07-20T10:55:45;100669.50;;;18.87;76.92
55610;BME280;41486;52.502;13.486;2023-07-20T10:58:17;100679.84;;;19.06;77.33
55610;BME280;41486;52.502;13.486;2023-07-20T11:01:03;100680.00;;;18.97;78.45
55610;BME280;41486;52.502;13.486;2023-07-20T11:03:37;100676.88;;;18.76;80.03
55610;BME280;41486;52.502;13.486;2023-07-20T11:06:31;100683.34;;;18.82;80.42
55610;BME280;41486;52.502;13.486;2023-07-20T11:09:07;100677.88;;;18.75;81.69
55610;BME280;41486;52.502;13.486;2023-07-20T11:11:40;100681.72;;;18.73;80.97
55610;BME280;41486;52.502;13.486;2023-07-20T11:14:10;100688.19;;;18.79;80.18
55610;BME280;41486;52.502;13.486;2023-07-20T11:16:41;100693.19;;;18.98;80.31
55610;BME280;41486;52.502;13.486;2023-07-20T11:19:15;100684.41;;;19.92;77.01
55610;BME280;41486;52.502;13.486;2023-07-20T11:22:04;100689.25;;;19.89;75.50
55610;BME280;41486;52.502;13.486;2023-07-20T11:24:38;100694.44;;;20.13;74.94
55610;BME280;41486;52.502;13.486;2023-07-20T11:27:08;100690.44;;;20.09;73.81
55610;BME280;41486;52.502;13.486;2023-07-20T11:29:37;100687.59;;;19.88;71.41
55610;BME280;41486;52.502;13.486;2023-07-20T11:32:06;100689.63;;;19.77;73.61
55610;BME280;41486;52.502;13.486;2023-07-20T11:34:35;100695.09;;;19.52;76.23
55610;BME280;41486;52.502;13.486;2023-07-20T11:37:05;100690.03;;;19.34;77.85
55610;BME280;41486;52.502;13.486;2023-07-20T11:39:36;100692.97;;;19.79;76.71
55610;BME280;41486;52.502;13.486;2023-07-20T11:42:05;100693.19;;;21.07;70.17
55610;BME280;41486;52.502;13.486;2023-07-20T11:44:35;100684.41;;;20.30;71.83
55610;BME280;41486;52.502;13.486;2023-07-20T11:47:06;100680.91;;;19.83;73.41
55610;BME280;41486;52.502;13.486;2023-07-20T11:49:36;100691.31;;;20.63;71.48
55610;BME280;41486;52.502;13.486;2023-07-20T11:52:06;100682.88;;;22.71;58.80
55610;BME280;41486;52.502;13.486;2023-07-20T11:54:35;100686.69;;;22.27;58.59
55610;BME280;41486;52.502;13.486;2023-07-20T11:57:05;100681.53;;;21.30;63.17
55610;BME280;41486;52.502;13.486;2023-07-20T11:59:34;100685.97;;;21.23;65.84
55610;BME280;41486;52.502;13.486;2023-07-20T12:02:02;100680.13;;;22.58;57.27
55610;BME280;41486;52.502;13.486;2023-07-20T12:04:33;100677.09;;;22.67;55.27
55610;BME280;41486;52.502;13.486;2023-07-20T12:07:02;100673.81;;;21.57;59.37
55610;BME280;41486;52.502;13.486;2023-07-20T12:09:30;100681.56;;;20.85;62.98
55610;BME280;41486;52.502;13.486;2023-07-20T12:12:18;100677.47;;;20.59;63.38
55610;BME280;41486;52.502;13.486;2023-07-20T12:14:48;100676.44;;;20.45;65.11
55610;BME280;41486;52.502;13.486;2023-07-20T12:17:16;100681.75;;;20.30;66.53
55610;BME280;41486;52.502;13.486;2023-07-20T12:19:45;100677.88;;;19.95;68.89
55610;BME280;41486;52.502;13.486;2023-07-20T12:22:14;100678.59;;;19.80;70.16
55610;BME280;41486;52.502;13.486;2023-07-20T12:24:42;100689.34;;;19.72;70.75
55610;BME280;41486;52.502;13.486;2023-07-20T12:27:13;100681.91;;;19.59;69.95
55610;BME280;41486;52.502;13.486;2023-07-20T12:29:45;100688.47;;;19.48;68.59
55610;BME280;41486;52.502;13.486;2023-07-20T12:32:14;100689.63;;;19.54;69.46
55610;BME280;41486;52.502;13.486;2023-07-20T12:34:42;100690.16;;;19.73;68.58
55610;BME280;41486;52.502;13.486;2023-07-20T12:37:11;100688.41;;;19.88;65.68
55610;BME280;41486;52.502;13.486;2023-07-20T12:39:39;100683.47;;;19.77;65.53
55610;BME280;41486;52.502;13.486;2023-07-20T12:42:14;100689.59;;;19.85;63.49
55610;BME280;41486;52.502;13.486;2023-07-20T12:44:44;100688.81;;;20.00;63.69
55610;BME280;41486;52.502;13.486;2023-07-20T12:47:16;100680.22;;;20.13;62.77